Time;durP1;ratioP1;P1;durP2;ratioP2;P2;SDS_P1;SDS_P2;PMS_P1;PMS_P2;Temp;Humidity;BMP_temperature;BMP_pressure;BME280_temperature;BME280_humidity;BME280_pressure;Samples;Min_cycle;Max_cycle;Signal;HPM_P1;HPM_P2
2022/09/30 00:00:42;;;;;;;20.77;10.13;;;;;;;16.36;82.85;94825.97;5109713;28;20419;-79
2022/09/30 00:03:08;;;;;;;20.08;9.45;;;;;;;16.35;82.54;94837.78;5091844;28;20065;-79
2022/09/30 00:05:33;;;;;;;23.77;11.60;;;;;;;16.65;82.75;94876.16;5091262;28;20058;-79
2022/09/30 00:07:59;;;;;;;28.65;12.23;;;;;;;16.67;82.84;94894.59;5086532;28;20120;-79
2022/09/30 00:10:24;;;;;;;20.80;9.65;;;;;;;16.83;82.24;94911.72;5108950;28;20047;-79
2022/09/30 00:12:52;;;;;;;21.00;10.57;;;;;;;16.70;81.57;94918.84;5110036;28;20043;-78
2022/09/30 00:15:19;;;;;;;20.17;10.88;;;;;;;16.85;81.18;94923.69;5110257;28;20027;-79
2022/09/30 00:17:44;;;;;;;18.50;11.07;;;;;;;16.39;81.71;94844.06;5108861;28;20091;-78
2022/09/30 00:20:10;;;;;;;19.27;10.95;;;;;;;16.54;81.52;94883.72;5089004;28;20170;-77
2022/09/30 00:22:35;;;;;;;22.98;11.50;;;;;;;16.48;81.86;94881.50;5090781;28;20028;-78
2022/09/30 00:25:01;;;;;;;18.67;10.88;;;;;;;16.53;81.61;94884.81;5091490;28;20027;-78
2022/09/30 00:27:27;;;;;;;24.60;10.45;;;;;;;16.60;82.13;94913.78;5091062;28;20494;-78
2022/09/30 00:29:52;;;;;;;15.93;9.85;;;;;;;16.76;81.24;94922.13;5109133;28;20038;-78
2022/09/30 00:32:18;;;;;;;18.48;10.25;;;;;;;16.93;81.23;94947.00;5090426;28;20034;-79
2022/09/30 00:34:44;;;;;;;19.25;10.15;;;;;;;16.60;81.19;94897.72;5109545;28;20417;-79
2022/09/30 00:37:13;;;;;;;25.05;11.20;;;;;;;16.77;81.05;94951.28;5091123;28;20034;-78
2022/09/30 00:39:39;;;;;;;23.98;11.20;;;;;;;16.46;81.47;94897.91;5107702;28;20493;-78
2022/09/30 00:42:10;;;;;;;21.13;11.15;;;;;;;16.71;81.50;94928.44;5109030;28;20696;-78
2022/09/30 00:45:02;;;;;;;21.52;11.10;;;;;;;16.83;81.71;94941.97;5109244;28;20024;-78
2022/09/30 00:47:30;;;;;;;18.05;11.23;;;;;;;16.43;81.71;94941.34;5109713;28;20089;-78
2022/09/30 00:50:04;;;;;;;19.25;10.57;;;;;;;16.41;81.61;94919.47;5090579;28;20039;-78
2022/09/30 00:52:31;;;;;;;20.75;10.98;;;;;;;16.52;82.37;94931.44;5096249;28;20415;-78
2022/09/30 00:54:59;;;;;;;17.33;10.45;;;;;;;16.63;82.30;94926.56;5089208;28;20537;-77
2022/09/30 00:57:26;;;;;;;16.48;11.05;;;;;;;16.41;81.87;94886.56;5109016;28;20107;-77
2022/09/30 00:59:52;;;;;;;18.27;10.32;;;;;;;16.53;82.40;94911.59;5108832;28;20043;-78
2022/09/30 01:02:17;;;;;;;16.85;10.85;;;;;;;16.29;81.70;94884.53;5108918;27;20382;-78
2022/09/30 01:04:45;;;;;;;19.38;11.23;;;;;;;16.42;81.89;94890.81;5089961;28;20027;-78
2022/09/30 01:07:11;;;;;;;22.52;11.23;;;;;;;16.52;82.08;94910.00;5091035;28;20039;-78
2022/09/30 01:09:41;;;;;;;20.60;11.40;;;;;;;16.55;81.15;94938.06;5086466;28;20055;-78
2022/09/30 01:12:11;;;;;;;19.17;10.05;;;;;;;16.54;81.89;94929.22;5089110;28;20067;-79
2022/09/30 01:14:39;;;;;;;24.85;11.68;;;;;;;16.44;82.55;94897.44;5106972;28;20110;-79
2022/09/30 01:17:47;;;;;;;22.45;11.82;;;;;;;16.34;81.68;94891.59;5109682;28;20027;-78
2022/09/30 01:20:19;;;;;;;19.50;10.70;;;;;;;16.18;82.28;94929.53;5090136;28;20635;-78
2022/09/30 01:23:02;;;;;;;25.90;11.90;;;;;;;16.35;81.83;94927.97;5109408;28;20024;-78
2022/09/30 01:26:05;;;;;;;27.00;11.65;;;;;;;16.14;82.94;94938.50;5090472;28;20126;-79
2022/09/30 01:28:40;;;;;;;25.17;12.32;;;;;;;16.18;83.34;94940.25;5090644;28;20493;-78
2022/09/30 01:31:24;;;;;;;18.00;11.48;;;;;;;16.30;83.21;94936.94;5108712;28;20487;-78
2022/09/30 01:34:14;;;;;;;25.42;12.85;;;;;;;16.26;82.92;94935.19;5089671;28;20123;-78
2022/09/30 01:36:50;;;;;;;17.30;11.07;;;;;;;16.26;83.04;94943.22;5090992;28;20791;-79
2022/09/30 01:39:35;;;;;;;21.58;11.73;;;;;;;16.30;82.43;94944.97;5108946;28;20646;-78
2022/09/30 01:42:10;;;;;;;29.73;11.95;;;;;;;16.37;82.11;94939.94;5088437;28;20027;-78
2022/09/30 01:44:48;;;;;;;17.85;11.18;;;;;;;16.35;81.57;94941.34;5089174;28;20145;-78
2022/09/30 01:47:25;;;;;;;27.50;12.27;;;;;;;16.37;82.11;94941.81;5094659;28;20499;-76
2022/09/30 01:50:01;;;;;;;17.70;12.02;;;;;;;16.43;82.18;94943.25;5081011;28;20019;-77
2022/09/30 01:53:01;;;;;;;19.60;11.65;;;;;;;16.38;81.76;94938.84;5105656;28;20043;-77
2022/09/30 01:55:51;;;;;;;17.00;10.88;;;;;;;16.26;81.27;94922.63;5005390;28;20086;-77
2022/09/30 01:58:29;;;;;;;23.50;13.23;;;;;;;16.13;81.76;94934.25;5089549;28;20101;-78
2022/09/30 02:00:59;;;;;;;22.67;12.93;;;;;;;16.27;81.87;94928.75;5089904;28;20525;-78
2022/09/30 02:03:34;;;;;;;22.57;13.40;;;;;;;16.29;82.07;94943.41;5090843;28;20467;-78
2022/09/30 02:06:03;;;;;;;17.60;11.32;;;;;;;16.30;82.17;94946.88;5108922;28;20028;-78
2022/09/30 02:08:49;;;;;;;25.90;11.55;;;;;;;15.72;81.86;94849.09;5094125;28;20505;-78
2022/09/30 02:11:20;;;;;;;24.52;11.93;;;;;;;16.18;81.95;94934.88;5112073;28;20134;-78
2022/09/30 02:13:54;;;;;;;20.55;11.68;;;;;;;16.22;81.81;94953.78;5109138;28;20519;-77
2022/09/30 02:16:48;;;;;;;22.60;11.38;;;;;;;16.24;82.15;94950.81;5093815;28;20039;-78
2022/09/30 02:19:38;;;;;;;26.45;12.80;;;;;;;15.82;81.17;94889.72;5090554;28;20536;-77
2022/09/30 02:22:19;;;;;;;20.67;12.32;;;;;;;15.92;81.46;94890.50;5083321;28;20031;-77
2022/09/30 02:24:49;;;;;;;33.50;12.07;;;;;;;16.15;81.31;94927.50;5093303;28;20036;-77
2022/09/30 02:27:20;;;;;;;23.63;12.13;;;;;;;15.86;81.28;94881.88;5093096;28;20526;-77
2022/09/30 02:29:54;;;;;;;22.33;11.20;;;;;;;16.33;81.03;94960.38;5112234;28;20107;-77
2022/09/30 02:32:26;;;;;;;23.30;11.07;;;;;;;16.09;81.15;94931.44;5091155;28;20169;-77
2022/09/30 02:35:16;;;;;;;21.92;11.40;;;;;;;15.88;81.49;94902.91;5111342;28;20446;-77
2022/09/30 02:37:47;;;;;;;19.88;11.18;;;;;;;16.20;80.93;94938.03;5112810;27;20039;-77
2022/09/30 02:40:23;;;;;;;25.35;12.82;;;;;;;16.02;80.89;94900.91;5093210;28;20059;-77
2022/09/30 02:42:49;;;;;;;28.42;12.25;;;;;;;16.11;81.09;94913.16;5090292;28;20108;-77
2022/09/30 02:45:21;;;;;;;49.13;14.95;;;;;;;16.05;81.78;94917.09;5111839;28;20036;-77
2022/09/30 02:48:05;;;;;;;66.70;17.02;;;;;;;16.39;82.22;94950.34;5114043;27;20038;-77
2022/09/30 02:50:39;;;;;;;54.22;15.20;;;;;;;16.41;82.33;94948.91;5108503;28;20039;-77
2022/09/30 02:53:24;;;;;;;42.85;15.80;;;;;;;16.04;82.23;94894.13;5092529;28;20031;-77
2022/09/30 02:56:03;;;;;;;47.75;14.45;;;;;;;16.40;82.42;94958.03;5092821;28;20425;-77
2022/09/30 02:58:29;;;;;;;35.35;13.50;;;;;;;16.39;82.46;94959.16;5111076;28;20485;-77
2022/09/30 03:00:56;;;;;;;33.97;12.55;;;;;;;16.01;82.79;94952.81;5111422;28;20034;-77
2022/09/30 03:03:31;;;;;;;35.53;12.30;;;;;;;15.91;83.15;94971.84;5108601;28;20505;-77
2022/09/30 03:05:57;;;;;;;29.20;13.00;;;;;;;16.09;83.34;94960.88;5111155;28;20028;-76
2022/09/30 03:08:22;;;;;;;60.80;13.38;;;;;;;15.90;83.16;94957.69;5092148;28;20531;-77
2022/09/30 03:10:50;;;;;;;70.40;13.93;;;;;;;15.76;83.43;94962.38;5107217;28;20044;-77
2022/09/30 03:13:48;;;;;;;56.95;13.18;;;;;;;15.81;84.14;94976.38;5091969;28;20042;-77
2022/09/30 03:16:47;;;;;;;66.65;12.60;;;;;;;15.76;84.57;94981.88;5091125;28;20051;-78
2022/09/30 03:19:37;;;;;;;67.68;14.10;;;;;;;15.71;84.46;94976.69;5084269;28;20134;-78
2022/09/30 03:22:30;;;;;;;90.35;14.70;;;;;;;15.66;83.79;94979.47;5092454;28;20032;-78
2022/09/30 03:24:55;;;;;;;63.80;16.13;;;;;;;15.59;84.50;94976.47;5110289;28;20027;-78
2022/09/30 03:27:31;;;;;;;73.13;18.05;;;;;;;15.69;84.40;94978.88;5092653;28;20034;-78
2022/09/30 03:30:16;;;;;;;116.57;18.25;;;;;;;15.69;84.00;94981.53;5108534;28;20031;-77
2022/09/30 03:33:06;;;;;;;117.25;20.23;;;;;;;15.53;84.59;94969.69;5089633;28;20039;-78
2022/09/30 03:35:36;;;;;;;179.18;20.00;;;;;;;15.30;83.58;94928.84;5091918;28;20039;-78
2022/09/30 03:38:05;;;;;;;165.20;22.17;;;;;;;15.69;83.25;94980.75;5110891;28;20042;-78
2022/09/30 03:40:48;;;;;;;238.27;21.45;;;;;;;15.32;83.35;94918.66;5091442;28;20035;-78
2022/09/30 03:43:19;;;;;;;154.55;20.60;;;;;;;15.79;82.82;94988.50;5110189;28;20050;-78
2022/09/30 03:45:54;;;;;;;111.40;19.75;;;;;;;15.66;83.65;94951.94;5090505;28;20126;-78
2022/09/30 03:48:21;;;;;;;79.57;19.23;;;;;;;15.47;83.96;94916.66;5096175;28;20043;-77
2022/09/30 03:50:47;;;;;;;77.75;20.13;;;;;;;15.51;83.29;94923.72;5110035;28;20028;-77
2022/09/30 03:53:13;;;;;;;177.98;20.88;;;;;;;15.71;82.82;94997.28;5091841;28;20059;-77
2022/09/30 03:55:48;;;;;;;86.03;19.80;;;;;;;15.73;83.62;94997.72;5085024;28;20125;-77
2022/09/30 03:58:18;;;;;;;123.03;20.92;;;;;;;15.56;83.77;94984.31;5081902;28;20036;-77
2022/09/30 04:00:52;;;;;;;85.47;20.05;;;;;;;15.01;84.75;94908.00;5109311;28;20079;-77
2022/09/30 04:03:19;;;;;;;103.47;18.10;;;;;;;15.76;84.07;95011.28;5110040;28;20161;-78
2022/09/30 04:05:46;;;;;;;76.55;19.30;;;;;;;15.72;83.93;95004.16;5108620;28;20031;-77
2022/09/30 04:08:11;;;;;;;70.32;20.98;;;;;;;15.35;83.48;94938.59;5090673;28;20044;-77
2022/09/30 04:10:41;;;;;;;91.85;20.15;;;;;;;15.66;83.11;94987.50;5098935;28;20051;-78
2022/09/30 04:13:07;;;;;;;104.45;21.05;;;;;;;15.68;83.70;95004.00;5097324;28;20093;-77
2022/09/30 04:15:35;;;;;;;69.43;20.50;;;;;;;15.82;83.13;95004.69;5084106;28;20032;-78
2022/09/30 04:18:01;;;;;;;57.75;21.08;;;;;;;15.47;84.44;94952.19;5100827;27;20463;-77
2022/09/30 04:20:26;;;;;;;66.38;21.48;;;;;;;15.17;84.12;94896.91;5096536;27;20038;-77
2022/09/30 04:22:52;;;;;;;106.63;21.27;;;;;;;15.75;83.39;95000.88;5093378;28;20047;-78
2022/09/30 04:25:17;;;;;;;72.45;21.60;;;;;;;15.74;83.79;94976.03;5068978;28;20039;-78
2022/09/30 04:27:43;;;;;;;107.80;20.95;;;;;;;15.70;83.64;94959.06;5070444;28;20051;-78
2022/09/30 04:30:09;;;;;;;51.10;19.67;;;;;;;15.75;83.13;94955.44;5065886;28;20040;-78
2022/09/30 04:32:34;;;;;;;42.42;16.50;;;;;;;15.64;83.45;94954.16;5075759;27;20031;-78
2022/09/30 04:34:59;;;;;;;56.22;17.05;;;;;;;16.00;83.88;95012.75;5076683;27;20057;-78
2022/09/30 04:37:25;;;;;;;127.47;18.88;;;;;;;15.44;83.51;94956.25;5092142;28;20039;-78
2022/09/30 04:39:52;;;;;;;49.28;19.00;;;;;;;15.97;83.88;95014.16;5093720;27;20667;-78
2022/09/30 04:42:18;;;;;;;60.22;20.02;;;;;;;15.99;83.66;95013.88;5090141;28;20385;-78
2022/09/30 04:44:43;;;;;;;85.30;17.08;;;;;;;16.00;83.38;95012.75;5078335;27;20088;-79
2022/09/30 04:47:09;;;;;;;68.72;17.85;;;;;;;15.44;83.85;94958.94;5076611;28;20113;-78
2022/09/30 04:49:35;;;;;;;55.85;19.25;;;;;;;15.78;83.88;95003.75;5097048;27;20039;-78
2022/09/30 04:52:00;;;;;;;62.38;19.38;;;;;;;15.67;83.16;94996.31;5072962;28;20450;-80
2022/09/30 04:54:26;;;;;;;76.97;20.23;;;;;;;15.39;82.85;94934.25;5071057;28;20121;-79
2022/09/30 04:56:51;;;;;;;80.53;19.92;;;;;;;15.79;83.55;95007.97;5092375;28;20039;-79
2022/09/30 04:59:17;;;;;;;71.88;20.15;;;;;;;15.63;83.51;94990.81;5094574;28;20047;-79
2022/09/30 05:01:43;;;;;;;45.17;20.55;;;;;;;15.40;83.61;94959.88;5091383;28;20036;-79
2022/09/30 05:04:11;;;;;;;46.67;20.58;;;;;;;15.86;83.62;95022.81;5097368;28;20078;-79
2022/09/30 05:06:37;;;;;;;104.97;18.90;;;;;;;16.08;83.06;95052.13;5097561;28;20477;-79
2022/09/30 05:09:02;;;;;;;52.50;17.95;;;;;;;15.90;83.16;95005.81;5077271;28;20617;-78
2022/09/30 05:11:28;;;;;;;64.32;19.10;;;;;;;15.93;82.88;95007.09;5087349;28;20075;-81
2022/09/30 05:13:57;;;;;;;51.88;18.67;;;;;;;16.24;83.20;95039.91;5071516;28;20035;-85
2022/09/30 05:16:23;;;;;;;39.17;18.65;;;;;;;15.86;82.90;94978.13;5073803;28;20457;-84
2022/09/30 05:18:49;;;;;;;61.03;20.20;;;;;;;15.76;83.26;94984.53;5071462;28;20044;-80
2022/09/30 05:21:19;;;;;;;44.95;20.52;;;;;;;15.85;84.27;95035.38;5083745;28;20032;-82
2022/09/30 05:23:45;;;;;;;48.75;22.63;;;;;;;15.72;84.02;95010.31;5088260;28;20031;-80
2022/09/30 05:26:11;;;;;;;47.88;21.05;;;;;;;15.18;84.44;94965.28;5083800;28;20531;-81
2022/09/30 05:28:56;;;;;;;53.95;22.42;;;;;;;14.51;83.84;94816.66;5095179;28;20540;-81
2022/09/30 05:31:22;;;;;;;61.38;26.10;;;;;;;15.67;83.35;94981.06;5074643;28;20394;-80
2022/09/30 05:33:47;;;;;;;73.35;24.65;;;;;;;15.67;83.58;94983.72;5081865;28;20039;-79
2022/09/30 05:36:14;;;;;;;80.05;22.90;;;;;;;15.69;82.90;94975.41;5071513;28;20035;-80
2022/09/30 05:38:40;;;;;;;55.13;22.65;;;;;;;15.51;83.22;94955.00;5091920;28;20039;-81
2022/09/30 05:41:12;;;;;;;43.78;23.88;;;;;;;15.70;83.46;95003.72;5092407;27;20517;-81
2022/09/30 05:43:39;;;;;;;76.28;23.55;;;;;;;15.87;82.75;95040.41;5093406;28;20039;-81
2022/09/30 05:46:04;;;;;;;74.25;21.75;;;;;;;15.91;82.82;95057.41;5089456;27;20051;-80
2022/09/30 05:48:30;;;;;;;45.58;24.05;;;;;;;15.50;83.38;95010.34;5073922;28;20024;-80
2022/09/30 05:50:57;;;;;;;47.50;22.63;;;;;;;15.91;83.11;95062.75;5077250;27;21000;-80
2022/09/30 05:53:23;;;;;;;40.72;22.35;;;;;;;15.88;83.60;95042.75;5088286;27;20080;-80
2022/09/30 05:55:49;;;;;;;37.45;22.10;;;;;;;16.37;83.47;95107.75;5078585;28;20023;-80
2022/09/30 05:58:15;;;;;;;44.58;22.35;;;;;;;16.06;82.66;95046.28;5070350;28;20039;-81
2022/09/30 06:00:42;;;;;;;41.63;23.15;;;;;;;16.36;83.67;95093.59;5089992;27;20128;-80
2022/09/30 06:03:07;;;;;;;40.10;24.00;;;;;;;16.09;83.32;95059.84;5065422;28;20132;-82
2022/09/30 06:05:33;;;;;;;36.10;23.42;;;;;;;16.44;83.24;95108.09;5069871;27;20126;-84
2022/09/30 06:07:59;;;;;;;43.35;25.60;;;;;;;14.26;83.38;94774.63;5093197;27;20039;-85
2022/09/30 06:10:25;;;;;;;52.78;26.50;;;;;;;16.13;83.74;95047.41;5069085;27;21673;-81
2022/09/30 06:12:51;;;;;;;43.75;25.20;;;;;;;15.72;83.16;94977.44;5090835;27;20027;-80
2022/09/30 06:15:16;;;;;;;47.75;25.65;;;;;;;16.24;82.21;95065.84;5070151;27;20140;-80
2022/09/30 06:17:42;;;;;;;43.95;24.48;;;;;;;16.32;82.59;95079.25;5098789;27;20118;-78
2022/09/30 06:20:09;;;;;;;41.58;26.27;;;;;;;16.57;82.30;95097.25;5072359;28;20118;-79
2022/09/30 06:22:35;;;;;;;41.35;26.38;;;;;;;16.26;82.73;95036.88;5076864;28;20579;-78
2022/09/30 06:25:05;;;;;;;51.65;29.05;;;;;;;16.59;82.97;95088.91;5096796;27;20486;-78
2022/09/30 06:27:34;;;;;;;48.70;28.42;;;;;;;16.86;82.83;95114.66;5074485;28;20028;-78
2022/09/30 06:29:59;;;;;;;49.65;28.33;;;;;;;16.79;83.28;95103.59;5091988;27;20068;-78
2022/09/30 06:32:25;;;;;;;46.63;27.88;;;;;;;16.27;82.07;95060.66;5095955;27;20038;-78
2022/09/30 06:34:54;;;;;;;47.90;26.55;;;;;;;16.78;82.17;95123.47;5095738;28;20034;-78
2022/09/30 06:37:23;;;;;;;49.28;27.80;;;;;;;16.56;82.38;95070.78;5074082;27;20406;-78
2022/09/30 06:39:49;;;;;;;39.63;24.48;;;;;;;16.99;82.00;95132.47;5094534;27;20518;-78
2022/09/30 06:42:16;;;;;;;58.58;28.58;;;;;;;16.90;81.64;95111.03;5071467;28;20084;-79
2022/09/30 06:44:43;;;;;;;59.72;27.27;;;;;;;16.83;81.73;95102.66;5092221;28;20038;-79
2022/09/30 06:47:09;;;;;;;53.63;26.27;;;;;;;15.88;81.62;94951.84;5092325;27;20032;-79
2022/09/30 06:49:34;;;;;;;52.13;27.23;;;;;;;16.65;81.10;95063.56;5093815;27;20490;-80
2022/09/30 06:52:00;;;;;;;54.47;27.92;;;;;;;17.11;82.20;95148.69;5090476;27;20032;-81
2022/09/30 06:54:27;;;;;;;53.90;28.25;;;;;;;16.90;81.78;95112.91;5074973;27;20089;-83
2022/09/30 06:56:54;;;;;;;51.83;27.27;;;;;;;17.20;81.22;95170.91;5073870;28;20040;-83
2022/09/30 06:59:19;;;;;;;53.55;29.25;;;;;;;16.97;81.18;95127.41;5094248;27;20041;-85
2022/09/30 07:01:45;;;;;;;52.63;28.23;;;;;;;17.22;81.52;95159.91;5097810;27;20388;-85
2022/09/30 07:04:11;;;;;;;48.92;29.13;;;;;;;16.79;81.05;95147.22;5078793;27;20048;-81
2022/09/30 07:06:37;;;;;;;49.28;28.55;;;;;;;17.17;81.63;95176.09;5092148;27;20878;-79
2022/09/30 07:09:04;;;;;;;54.10;29.85;;;;;;;17.09;81.45;95160.84;5092184;27;20055;-79
2022/09/30 07:11:29;;;;;;;52.40;30.75;;;;;;;17.13;81.63;95164.44;5083646;27;20043;-80
2022/09/30 07:13:54;;;;;;;52.60;30.23;;;;;;;16.20;80.52;95009.50;5083213;27;20056;-81
2022/09/30 07:16:20;;;;;;;48.85;30.95;;;;;;;17.36;79.81;95187.31;5089709;27;20518;-81
2022/09/30 07:18:46;;;;;;;57.45;30.33;;;;;;;17.14;80.42;95180.22;5088810;27;20790;-81
2022/09/30 07:21:14;;;;;;;57.78;31.77;;;;;;;16.93;80.37;95113.09;5090540;27;20027;-81
2022/09/30 07:23:47;;;;;;;61.42;32.97;;;;;;;16.74;80.64;95066.25;5074240;28;20084;-80
2022/09/30 07:26:21;;;;;;;66.25;35.53;;;;;;;17.55;80.03;95197.72;5072072;28;20031;-80
2022/09/30 07:28:47;;;;;;;59.47;34.15;;;;;;;17.18;78.68;95175.81;5095351;27;20038;-81
2022/09/30 07:31:24;;;;;;;62.83;32.83;;;;;;;17.21;79.14;95161.00;5091364;27;21844;-80
2022/09/30 07:33:50;;;;;;;59.47;33.40;;;;;;;16.89;79.23;95120.16;5076805;28;20028;-80
2022/09/30 07:36:17;;;;;;;54.40;32.80;;;;;;;17.14;78.31;95148.06;5095502;27;20575;-80
2022/09/30 07:38:44;;;;;;;57.72;34.83;;;;;;;16.30;77.80;95008.41;5071120;28;20617;-80
2022/09/30 07:41:13;;;;;;;72.38;36.20;;;;;;;17.63;77.99;95202.31;5094318;27;20021;-81
2022/09/30 07:43:41;;;;;;;58.15;34.72;;;;;;;17.23;77.90;95132.78;5094785;28;20110;-81
2022/09/30 07:46:09;;;;;;;54.22;32.38;;;;;;;17.64;77.82;95191.28;5074541;28;20393;-80
2022/09/30 07:51:02;;;;;;;65.82;37.45;;;;;;;17.11;79.01;95147.91;5096775;27;20035;-82
2022/09/30 07:53:28;;;;;;;74.25;38.83;;;;;;;17.11;79.91;95156.72;5077879;27;20046;-83
2022/09/30 07:55:53;;;;;;;62.28;37.80;;;;;;;16.90;79.70;95119.06;5079372;28;20062;-85
2022/09/30 07:58:19;;;;;;;66.97;36.53;;;;;;;16.98;79.02;95099.53;5095904;27;20038;-84
2022/09/30 08:00:49;;;;;;;61.38;36.97;;;;;;;17.24;79.10;95141.63;5094841;27;20187;-80
2022/09/30 08:03:14;;;;;;;71.65;38.53;;;;;;;16.90;79.81;95103.00;5072373;27;21594;-79
2022/09/30 08:05:47;;;;;;;57.15;32.00;;;;;;;16.92;79.44;95113.38;5074004;28;20035;-80
2022/09/30 08:08:14;;;;;;;59.33;30.83;;;;;;;17.08;79.77;95140.50;5094898;27;20548;-82
2022/09/30 08:10:40;;;;;;;50.47;29.58;;;;;;;17.66;79.26;95212.41;5073202;28;20104;-80
2022/09/30 08:13:06;;;;;;;44.67;27.40;;;;;;;16.36;78.36;95009.81;5094947;27;20035;-81
2022/09/30 08:15:31;;;;;;;45.63;22.25;;;;;;;17.73;77.70;95212.72;5070670;28;20031;-80
2022/09/30 08:17:57;;;;;;;70.28;17.77;;;;;;;17.76;76.71;95219.34;5090742;28;20039;-81
2022/09/30 08:20:22;;;;;;;30.98;13.02;;;;;;;17.72;75.20;95225.34;5067291;28;20105;-80
2022/09/30 08:22:51;;;;;;;53.55;15.52;;;;;;;17.52;75.06;95206.41;5092872;27;20110;-79
2022/09/30 08:25:17;;;;;;;31.60;14.38;;;;;;;17.77;74.83;95227.09;5074798;28;20088;-79
2022/09/30 08:27:42;;;;;;;38.85;15.90;;;;;;;17.29;75.00;95184.31;5077468;28;20103;-79
2022/09/30 08:30:08;;;;;;;44.25;21.48;;;;;;;17.13;76.13;95159.88;5093461;27;20540;-79
2022/09/30 08:32:33;;;;;;;44.65;22.40;;;;;;;17.32;75.98;95163.03;5096447;28;20039;-79
2022/09/30 08:35:00;;;;;;;43.35;20.15;;;;;;;17.80;76.35;95234.50;5094904;28;20043;-79
2022/09/30 08:37:25;;;;;;;35.95;19.40;;;;;;;17.78;76.02;95222.50;5101501;27;20042;-80
2022/09/30 08:39:51;;;;;;;40.83;20.70;;;;;;;17.40;75.70;95150.72;5087153;27;20489;-79
2022/09/30 08:42:31;;;;;;;42.03;20.50;;;;;;;17.99;76.04;95231.47;5097960;27;20030;-84
2022/09/30 08:45:16;;;;;;;38.92;17.80;;;;;;;17.43;75.23;95160.81;5093775;27;20031;-83
2022/09/30 08:47:56;;;;;;;36.63;19.88;;;;;;;17.92;76.62;95236.53;5075772;28;20043;-82
2022/09/30 08:50:48;;;;;;;29.33;17.13;;;;;;;15.99;75.28;94926.38;5074385;28;20075;-78
2022/09/30 08:53:29;;;;;;;34.50;16.30;;;;;;;17.58;76.27;95164.91;5087336;27;20472;-80
2022/09/30 08:55:56;;;;;;;33.83;17.27;;;;;;;17.75;75.99;95194.44;5100573;28;20135;-80
2022/09/30 08:58:29;;;;;;;27.30;14.18;;;;;;;17.98;74.89;95225.31;5095261;28;20533;-80
2022/09/30 09:01:19;;;;;;;31.83;14.63;;;;;;;17.48;75.79;95143.78;5089991;28;20032;-80
2022/09/30 09:03:45;;;;;;;31.65;14.95;;;;;;;18.20;75.37;95251.16;5089826;28;20124;-80
2022/09/30 09:06:19;;;;;;;29.55;15.43;;;;;;;18.25;75.20;95255.56;5057948;28;20514;-79
2022/09/30 09:08:54;;;;;;;28.80;13.88;;;;;;;18.27;75.12;95239.94;5072111;28;20145;-79
2022/09/30 09:11:49;;;;;;;28.00;15.05;;;;;;;18.41;74.49;95252.03;5088110;28;20092;-79
2022/09/30 09:14:23;;;;;;;27.52;14.07;;;;;;;18.44;73.06;95253.31;5091474;28;20043;-82
2022/09/30 09:16:57;;;;;;;34.10;13.38;;;;;;;18.43;72.74;95252.53;5080655;27;20057;-80
2022/09/30 09:19:30;;;;;;;31.58;11.90;;;;;;;17.85;71.70;95150.38;5097305;27;20491;-80
2022/09/30 09:22:00;;;;;;;26.67;12.02;;;;;;;17.91;72.84;95152.59;5073996;28;20069;-79
2022/09/30 09:24:29;;;;;;;29.60;10.80;;;;;;;18.09;72.47;95180.91;5078374;27;20043;-80
2022/09/30 09:26:57;;;;;;;26.38;12.48;;;;;;;18.59;71.39;95260.09;5091974;27;20047;-80
2022/09/30 09:29:44;;;;;;;25.45;14.77;;;;;;;18.57;70.13;95260.41;5082783;28;20039;-80
2022/09/30 09:32:13;;;;;;;38.47;20.23;;;;;;;18.37;71.80;95226.97;5074724;27;20032;-81
2022/09/30 09:34:40;;;;;;;46.05;18.58;;;;;;;18.68;71.11;95253.56;5082172;27;20036;-79
2022/09/30 09:37:14;;;;;;;41.55;19.75;;;;;;;18.19;71.89;95173.63;5093871;27;20063;-80
2022/09/30 09:39:56;;;;;;;35.15;17.58;;;;;;;18.80;70.37;95261.72;5076581;28;20227;-78
2022/09/30 09:42:33;;;;;;;38.30;17.58;;;;;;;18.65;70.21;95207.75;5075670;28;20111;-79
2022/09/30 09:45:03;;;;;;;32.35;19.05;;;;;;;18.72;70.73;95197.28;5090920;27;20168;-78
2022/09/30 09:47:29;;;;;;;35.85;18.35;;;;;;;18.39;69.90;95164.84;5086811;28;20063;-78
2022/09/30 09:49:57;;;;;;;41.85;18.63;;;;;;;19.28;70.37;95258.63;5091861;27;20612;-78
2022/09/30 09:52:25;;;;;;;38.53;19.38;;;;;;;19.60;71.85;95257.19;5087114;27;20099;-79
2022/09/30 09:54:55;;;;;;;37.45;20.35;;;;;;;20.19;73.34;95238.13;5093210;27;20084;-79
2022/09/30 09:57:26;;;;;;;36.22;19.55;;;;;;;21.38;75.12;95255.88;5090537;28;20626;-78
2022/09/30 10:03:18;;;;;;;35.20;16.50;;;;;;;22.64;69.84;95251.69;5099063;27;20108;-84
2022/09/30 10:05:46;;;;;;;28.10;13.70;;;;;;;24.91;56.23;95190.66;5068068;28;20386;-80
2022/09/30 10:08:16;;;;;;;21.42;12.13;;;;;;;26.40;52.23;95247.72;5070359;27;20490;-79
2022/09/30 10:10:46;;;;;;;23.93;11.73;;;;;;;27.03;51.05;95195.06;5092618;27;20058;-79
2022/09/30 10:13:18;;;;;;;18.00;10.02;;;;;;;27.81;47.16;95197.50;5092256;27;20131;-79
2022/09/30 10:15:47;;;;;;;20.65;8.73;;;;;;;28.94;44.99;95246.13;5082329;27;20074;-82
2022/09/30 10:18:33;;;;;;;19.77;9.45;;;;;;;29.34;42.98;95198.53;5072728;27;20118;-79
2022/09/30 10:21:31;;;;;;;20.35;6.93;;;;;;;29.84;39.94;95219.09;5054425;28;20214;-79
2022/09/30 10:24:18;;;;;;;10.25;5.70;;;;;;;29.92;36.79;95234.31;5035879;27;20801;-80
2022/09/30 10:26:44;;;;;;;12.75;6.07;;;;;;;30.51;36.29;95231.75;5093683;27;20134;-85
2022/09/30 10:29:46;;;;;;;19.50;7.60;;;;;;;30.42;36.43;95173.94;5069310;28;20410;-85
2022/09/30 10:32:12;;;;;;;10.85;4.15;;;;;;;29.22;32.16;95067.84;5007084;28;20037;-79
2022/09/30 10:34:41;;;;;;;13.40;4.18;;;;;;;29.74;32.00;95126.22;5052970;27;20085;-79
2022/09/30 10:37:10;;;;;;;11.75;3.42;;;;;;;29.98;30.53;95135.50;5087088;27;20043;-80
2022/09/30 10:39:39;;;;;;;11.38;4.95;;;;;;;30.41;32.00;95218.88;5076938;28;20046;-79
2022/09/30 10:42:10;;;;;;;15.80;4.47;;;;;;;30.07;32.43;95163.19;5096247;28;20032;-80
2022/09/30 10:44:48;;;;;;;7.07;3.42;;;;;;;29.78;29.87;95135.16;5088284;27;20040;-79
2022/09/30 10:47:18;;;;;;;6.00;2.70;;;;;;;30.03;29.04;95163.22;5093072;27;20066;-79
2022/09/30 10:49:59;;;;;;;11.68;3.05;;;;;;;30.35;29.08;95145.84;5076488;27;20035;-80
2022/09/30 10:52:31;;;;;;;5.43;2.80;;;;;;;30.61;28.78;95153.47;5090003;27;20053;-79
2022/09/30 10:55:05;;;;;;;4.05;2.88;;;;;;;31.31;28.39;95212.38;5073712;27;20051;-80
2022/09/30 10:57:34;;;;;;;7.50;2.45;;;;;;;30.29;28.10;95099.75;5075922;28;20118;-79
2022/09/30 11:00:05;;;;;;;6.70;2.65;;;;;;;30.90;28.12;95173.97;5076863;28;20770;-79
2022/09/30 11:02:39;;;;;;;8.68;2.88;;;;;;;31.17;28.52;95212.50;5085695;27;20114;-82
2022/09/30 11:05:23;;;;;;;8.65;2.90;;;;;;;30.37;28.89;95226.31;5088991;27;20116;-82
2022/09/30 11:07:51;;;;;;;4.95;2.45;;;;;;;30.48;29.06;95227.03;5087512;27;20866;-79
2022/09/30 11:10:44;;;;;;;12.15;3.78;;;;;;;29.76;28.83;95088.31;5073211;28;20052;-81
2022/09/30 11:13:36;;;;;;;16.17;3.72;;;;;;;30.35;29.07;95184.13;5079322;27;20043;-84
2022/09/30 11:16:07;;;;;;;4.50;2.58;;;;;;;30.37;28.55;95228.28;5094810;27;20501;-84
2022/09/30 11:18:36;;;;;;;;;;;;;;;30.50;28.25;95215.72;5073452;28;20098;-83
2022/09/30 11:21:11;;;;;;;10.38;2.75;;;;;;;29.89;28.25;95100.38;5079411;28;20333;-80
2022/09/30 11:23:47;;;;;;;5.28;2.67;;;;;;;30.39;27.99;95166.50;5091737;28;20041;-80
2022/09/30 11:26:51;;;;;;;7.70;2.45;;;;;;;30.66;27.53;95225.03;5072068;27;21047;-79
2022/09/30 11:29:35;;;;;;;9.43;2.28;;;;;;;31.12;26.66;95166.41;5071375;28;20043;-79
2022/09/30 11:32:04;;;;;;;4.18;2.63;;;;;;;31.90;27.12;95225.09;5069481;28;20036;-81
2022/09/30 11:34:57;;;;;;;8.02;2.47;;;;;;;31.75;26.78;95172.41;5086248;28;20036;-80
2022/09/30 11:38:00;;;;;;;4.90;2.10;;;;;;;30.99;27.42;95220.84;5093172;27;20031;-81
2022/09/30 11:40:55;;;;;;;4.57;2.10;;;;;;;30.72;28.03;95222.63;5088427;27;20057;-79
2022/09/30 11:43:31;;;;;;;6.60;2.17;;;;;;;30.59;26.66;95177.75;5059714;27;20048;-79
2022/09/30 11:46:34;;;;;;;5.95;2.25;;;;;;;31.31;26.57;95222.56;5063590;28;20054;-79